Archival Weather

Ambodedjo

Ambodedjo, Mali (GAMB)

Report from: Tuesday, June 6, 2023 3:00 AM GMT
Current time: Tuesday, July 16, 2024 2:56 PM GMT

Current weather – Weather history – Daily summaries
Weather forecast

Temperature31.0°C (87.8°F)
Heat index32.4°C (90.3°F)
Dew point19.0°C (66.2°F)
Winds 6 kts (3.1 m/s, 6.9 mph) Southwest (220°)
Clouds Sky clear
Altimeter29.83 in.Hg (1010 mB)
Relative humidity49 %
Density altitude2,238 ft. (682 m)
Remarks Ceiling and visibility OK
Flight conditions Visual Meteorological Conditions
Raw dataGAMB 060300Z 22006KT CAVOK 31/19 Q1010
An error has occurred. This application may no longer respond until reloaded. Reload 🗙